Flight Track Log - Related Links

Times and Time Zones

All times are in EDT time to prevent confusion due to time zone crossing. See the EGF3773 flight status page for this flight to view local times or setup timezone preferences in your user account.

Time Position Orientation Groundspeed Altitude Reporting Facility
EDT Latitude Longitude Course Direction KTS MPH feet Rate Location/Type
Thu 08:28:41 PM 39.8833 -104.5833 66° East 181 208 6,800  Level Denver TRACON
Thu 08:29:41 PM 39.9000 -104.5000 75° East 244 281 8,600 1,632 Climbing Denver TRACON
Thu 08:30:00 PM 39.9240 -104.2351 73° East  Level FlightAware Approximate
Thu 08:30:35 PM 39.9167 -104.4167 75° East 284 327 9,900  Level Denver TRACON
Thu 08:31:00 PM 39.9567 -104.0935 73° East  Level FlightAware Approximate
Thu 08:31:15 PM 39.9286 -104.3514 77° East 290 334 10,000  Level Denver Center
Thu 08:32:00 PM 39.9777 -103.9503 66° East  Level FlightAware Approximate
Thu 08:32:17 PM 39.9511 -104.2494 74° East 295 339 11,700  Level Denver Center
Thu 08:33:00 PM 40.0033 -103.8067 66° East  Level FlightAware Approximate
Thu 08:33:19 PM 39.9742 -104.1331 75° East 308 354 14,100  Level Denver Center
Thu 08:34:21 PM 39.9872 -104.0097 82° East 343 395 15,600 1,355 Climbing Denver Center
Thu 08:35:23 PM 40.0053 -103.8608 81° East 385 443 16,900 1,403 Climbing Denver Center
Thu 08:36:25 PM 40.0283 -103.7192 78° East 393 452 18,500 1,790 Climbing Denver Center
Thu 08:37:27 PM 40.0517 -103.5803 78° East 389 448 20,600 1,984 Climbing Denver Center
Thu 08:38:29 PM 40.0747 -103.4389 78° East 394 453 22,600 1,694 Climbing Denver Center
Thu 08:39:31 PM 40.0983 -103.2967 78° East 397 457 24,100 1,463 Climbing Denver Center
Thu 08:40:32 PM 40.1211 -103.1494 79° East 408 470 25,600 1,220 Climbing Denver Center
Thu 08:41:34 PM 40.1456 -102.9992 78° East 419 482 26,600 971 Climbing Denver Center
Thu 08:42:48 PM 40.1822 -102.8239 75° East 425 489 27,800 1,095 Climbing Denver Center
Thu 08:43:51 PM 40.2322 -102.6575 68° East 430 495 29,100 1,200 Climbing Denver Center
Thu 08:44:53 PM 40.2797 -102.4972 69° East 425 489 30,300 1,065 Climbing Denver Center
Thu 08:45:55 PM 40.3200 -102.3589 69° East 425 489 31,300 1,024 Climbing Denver Center
Thu 08:46:56 PM 40.3675 -102.1947 69° East 431 496 32,400 1,024 Climbing Denver Center
Thu 08:47:58 PM 40.4089 -102.0544 69° East 431 496 33,400 816 Climbing Denver Center
Thu 08:49:01 PM 40.4497 -101.9125 69° East 432 497 34,100 726 Climbing Denver Center
Thu 08:50:02 PM 40.4975 -101.7444 69° East 440 506 34,900 435 Climbing Denver Center
Thu 08:51:05 PM 40.5389 -101.5975 70° East 447 514 35,000 44 Climbing Denver Center
Thu 08:52:18 PM 40.5894 -101.4194 69° East 467 537 35,000 265 Level Denver Center
Thu 08:53:21 PM 40.6469 -101.2133 70° East 470 541 35,600 720 Climbing Denver Center
Thu 08:54:23 PM 40.6892 -101.0606 70° East 466 536 36,500 683 Climbing Denver Center
Thu 08:55:24 PM 40.7369 -100.8856 70° East 458 527 37,000 244 Climbing Denver Center
Thu 08:56:26 PM 40.7825 -100.7222 70° East 470 541 37,000  Level Denver Center
Thu 08:57:28 PM 40.8300 -100.5503 70° East 487 560 37,000  Level Denver Center
Thu 08:58:30 PM 40.8728 -100.3903 70° East 487 560 37,000  Level Denver Center
Thu 08:59:31 PM 40.9089 -100.2578 70° East 484 557 37,000  Level Denver Center
Thu 09:00:34 PM 40.9664 -100.0422 70° East 487 560 37,000  Level Denver Center
Thu 09:01:35 PM 41.0156 -99.8542 71° East 485 558 37,000  Level Denver Center
Thu 09:02:37 PM 41.0633 -99.6761 70° East 486 559 37,000  Level Denver Center
Thu 09:03:39 PM 41.1081 -99.5033 71° East 486 559 37,000  Level Denver Center
Thu 09:04:41 PM 41.1511 -99.3356 71° East 487 560 37,000  Level Denver Center
Thu 09:05:43 PM 41.1956 -99.1656 71° East 485 558 37,000  Level Denver Center
Thu 09:06:45 PM 41.2397 -98.9894 72° East 486 559 37,000  Level Denver Center
Thu 09:07:47 PM 41.2806 -98.8256 72° East 487 560 37,000  Level Denver Center
Thu 09:08:04 PM 41.2914 -98.7886 69° East 487 560 37,000  Level Minneapolis Center
Thu 09:09:06 PM 41.3422 -98.5819 72° East 488 562 37,000  Level Minneapolis Center
Thu 09:10:08 PM 41.3889 -98.3983 71° East 492 566 37,000  Level Minneapolis Center
Thu 09:11:10 PM 41.4322 -98.2225 72° East 497 572 37,000  Level Minneapolis Center
Thu 09:12:12 PM 41.4739 -98.0569 71° East 499 574 37,000  Level Minneapolis Center
Thu 09:13:14 PM 41.5164 -97.8803 72° East 500 575 37,000  Level Minneapolis Center
Thu 09:14:16 PM 41.5594 -97.7028 72° East 502 578 37,000  Level Minneapolis Center
Thu 09:15:17 PM 41.6039 -97.5231 72° East 507 583 37,000  Level Minneapolis Center
Thu 09:16:19 PM 41.6550 -97.3067 72° East 507 583 37,000  Level Minneapolis Center
Thu 09:17:21 PM 41.6967 -97.1272 73° East 506 582 37,000  Level Minneapolis Center
Thu 09:18:23 PM 41.7397 -96.9450 72° East 510 587 37,000  Level Minneapolis Center
Thu 09:19:24 PM 41.7731 -96.8003 73° East 508 585 37,000  Level Minneapolis Center
Thu 09:20:27 PM 41.8231 -96.5836 73° East 506 582 37,000  Level Minneapolis Center
Thu 09:21:29 PM 41.8647 -96.4019 73° East 505 581 37,000  Level Minneapolis Center
Thu 09:22:30 PM 41.9053 -96.2183 73° East 508 585 37,000  Level Minneapolis Center
Thu 09:23:32 PM 41.9325 -96.0331 79° East 501 577 37,000  Level Minneapolis Center
Thu 09:24:34 PM 41.9581 -95.8047 81° East 508 585 37,000  Level Minneapolis Center
Thu 09:25:36 PM 41.9786 -95.6175 82° East 505 581 37,000  Level Minneapolis Center
Thu 09:26:37 PM 41.9983 -95.4303 82° East 505 581 37,000  Level Minneapolis Center
Thu 09:27:39 PM 42.0169 -95.2453 82° East 499 574 37,000  Level Minneapolis Center
Thu 09:28:41 PM 42.0367 -95.0594 82° East 500 575 37,000  Level Minneapolis Center
Thu 09:29:42 PM 42.0558 -94.8744 82° East 498 573 37,000  Level Minneapolis Center
Thu 09:30:44 PM 42.0736 -94.6903 83° East 496 571 37,000  Level Minneapolis Center
Thu 09:31:45 PM 42.0914 -94.5072 82° East 494 568 37,000  Level Minneapolis Center
Thu 09:32:47 PM 42.1089 -94.3253 83° East 491 565 37,000  Level Minneapolis Center
Thu 09:33:49 PM 42.1306 -94.1058 82° East 492 566 37,000  Level Minneapolis Center
Thu 09:34:50 PM 42.1486 -93.9217 82° East 494 568 37,000  Level Minneapolis Center
Thu 09:35:52 PM 42.1647 -93.7408 83° East 499 574 37,000  Level Minneapolis Center
Thu 09:36:53 PM 42.1811 -93.5553 83° East 502 578 37,000  Level Minneapolis Center
Thu 09:37:55 PM 42.1981 -93.3733 83° East 498 573 37,000  Level Minneapolis Center
Thu 09:38:56 PM 42.2106 -93.2261 83° East 497 572 37,000  Level Minneapolis Center
Thu 09:39:58 PM 42.2292 -93.0064 83° East 497 572 37,000  Level Minneapolis Center
Thu 09:40:59 PM 42.2472 -92.7917 83° East 488 562 37,000  Level Minneapolis Center
Thu 09:42:01 PM 42.2628 -92.6158 83° East 482 555 37,000  Level Minneapolis Center
Thu 09:43:02 PM 42.2764 -92.4394 84° East 477 549 37,000  Level Minneapolis Center
Thu 09:44:04 PM 42.2911 -92.2642 83° East 477 549 37,000  Level Minneapolis Center
Thu 09:45:06 PM 42.3033 -92.0858 85° East 479 551 37,000  Level Chicago Center
Thu 09:46:08 PM 42.3200 -91.8750 84° East 478 550 37,000 -145 Level Chicago Center
Thu 09:47:10 PM 42.3336 -91.6981 84° East 480 552 36,700 -629 Descending Chicago Center
Thu 09:48:12 PM 42.3467 -91.5208 84° East 481 554 35,700 -1,065 Descending Chicago Center
Thu 09:49:14 PM 42.3589 -91.3389 85° East 493 567 34,500 -1,220 Descending Chicago Center
Thu 09:50:15 PM 42.3719 -91.1569 84° East 495 570 33,200 -1,220 Descending Chicago Center
Thu 09:51:17 PM 42.3850 -90.9378 85° East 495 570 32,000 -1,113 Descending Chicago Center
Thu 09:52:19 PM 42.3981 -90.7514 85° East 501 577 30,900 -1,268 Descending Chicago Center
Thu 09:53:20 PM 42.4144 -90.5667 83° East 499 574 29,400 -1,463 Descending Chicago Center
Thu 09:54:22 PM 42.4336 -90.3869 82° East 489 563 27,900 -1,452 Descending Chicago Center
Thu 09:55:24 PM 42.4308 -90.2144 91° East 466 536 26,400 -1,935 Descending Chicago Center
Thu 09:56:26 PM 42.4261 -90.0042 92° East 471 542 23,900 -2,293 Descending Chicago Center
Thu 09:57:27 PM 42.4200 -89.8231 93° East 461 531 21,700 -2,049 Descending Chicago Center
Thu 09:58:29 PM 42.4158 -89.6589 92° East 441 507 19,700 -1,935 Descending Chicago Center
Thu 09:59:31 PM 42.4106 -89.5014 93° East 424 488 17,700 -1,790 Descending Chicago Center
Thu 10:00:33 PM 42.4058 -89.3478 92° East 412 474 16,000 -1,597 Descending Chicago Center
Thu 10:01:35 PM 42.4006 -89.2019 93° East 391 450 14,400 -1,463 Descending Chicago Center
Thu 10:02:36 PM 42.3961 -89.0556 92° East 390 449 13,000 -1,317 Descending Chicago Center
Thu 10:03:38 PM 42.3903 -88.8983 93° East 356 410 11,700 -1,171 Descending Chicago Center
Thu 10:04:39 PM 42.3847 -88.7839 94° East 313 360 10,600 -1,073 Descending Chicago Center
Thu 10:05:41 PM 42.3697 -88.6806 101° East 286 329 9,500 -732 Descending Chicago Center
Thu 10:06:42 PM 42.3433 -88.5833 110° East 279 321 9,100 -537 Descending Chicago Center
Thu 10:07:44 PM 42.3081 -88.4811 115° Southeast 277 319 8,400 -968 Descending Chicago Center
Thu 10:08:46 PM 42.2806 -88.3883 112° Southeast 271 312 7,100 -683 Descending Chicago Center
Thu 10:09:47 PM 42.2831 -88.2861 88° East 278 320 7,000 -49 Descending Chicago Center
Thu 10:10:49 PM 42.2589 -88.2031 111° Southeast 255 293 7,000  Level Chicago Center
Thu 10:11:50 PM 42.2003 -88.1525 147° Southeast 250 288 7,000 -339 Level Chicago Center
Thu 10:12:53 PM 42.1317 -88.1406 173° South 250 288 6,300 -1,268 Descending Chicago Center
Thu 10:13:53 PM 42.0689 -88.1725 201° Southwest 248 285 4,400 -1,131 Descending Chicago Center
Thu 10:14:55 PM 42.0014 -88.2092 202° Southwest 230 265 4,000 -439 Descending Chicago Center
Thu 10:15:56 PM 41.9675 -88.1550 130° Southeast 211 243 3,500 -385 Descending Chicago Center
Thu 10:16:44 PM 41.9667 -88.1000 91° East 197 227 3,300 -250 Descending Chicago TRACON

Login

Don't have an account? Register now (free) for customized features, flight alerts, and more!